Taylor, MI (48180)

10:02 PM EST on March 05, 2015 (GMT -0500)
Terry's Backyard Weather | Change Station
CLOSE
Current Station
Personal Weather Station
Location: Taylor, MI
Elevation: 605 ft
Nearby Weather Stations

Elev 605 ft 42.23 °N, 83.24 °W | Updated 3 seconds ago

Clear
Clear
10.5 °F
Feels Like 10 °F
N
0.0
Wind Variable Wind from NNW
Gusts 0.0 mph

Today
High -- | Low -- °F
--% Chance of Precip.
Yesterday
High -- | Low -- °F
Precip. -- in
7:02 AM 6:27 PM
Full, 100% visible
Pressure 30.55 in
Visibility 10.0 miles
Clouds Clear
Windchill 10 °F
Dew Point 4 °F
Humidity 76%
Rainfall in
Snow Depth Not available.
UV 0 out of 12
Pollen .50 out of 12
Air Quality Not available.
Flu Activity Not available.
METAR KDTW 060253Z 00000KT 10SM CLR M13/M18 A3051 RMK AO2 SLP345 T11281178 51010 $

More Conditions Fewer Conditions

Pressure 30.55 in
Visibility 10.0 miles
Clouds Clear
Windchill 10 °F
Dew Point 4 °F
Humidity 76%
Rainfall in
Snow Depth Not available.
UV 0 out of 12
Pollen .50 out of 12
Air Quality Not available.
Flu Activity Not available.
METAR KDTW 060253Z 00000KT 10SM CLR M13/M18 A3051 RMK AO2 SLP345 T11281178 51010 $

More Conditions Fewer Conditions

10-Day Weather Forecast

Almanac

Astronomy

Mar. 05, 2015 Rise Set
Actual Time
Civil Twilight
Nautical Twilight
Astronomical Twilight
Moon
Length of Visible Light
Length of Day
Tomorrow will be .
, % of the Moon is Illuminated

Today's Extremes

State Highs State Lows

Community

WunderPhotos

Upload Photos

1,803,153 photos uploaded!

WunderBlogs® & News

Nearby

Air Quality

  Air Quality AQ Index Pollutant
Not available.

Snow Depth

Station Depth Elevation

Earthquake Activity

City Distance Mag. Time & Date
Minimum magnitude displayed is 2.5.

Coastal Water Temperatures

Place Temperature

Nearby Weather Stations